36.3F
Current conditions from King Hill
Updated every 5 minutes
 
  Thursday December 8, 2022

Observations for Westford

Westford

44° 37' 38"N, 73° 02' 29"W, Elevation 850 ft.
Eastern Time

Hourly observations for the last 72 hours

Date Time Temperature (F) Humi-
dity

(%)
Wind
(mph)
Pressure Rain (in) Sun
(W/m2)
UV ET
(in)
Air Dew 6 Hour 1 Hr 3 Hr 6 Hr Day
Alt
(in)
Sea
Level

(mb)
Max Min
8 05:00 36.8 35.8 96 WNW 6 G 12 30.16 1021.5 0.00 0 0.0 0.000
8 04:00 37.4 36.1 95 WNW 5 G 12 30.15 1021.1 0.00 0 0.0 0.000
8 03:00 38.0 37.0 96 W 2 G 8 30.14 1020.7 0.00 0 0.0 0.000
8 02:00 38.1 37.1 96 W 5 G 10 30.13 1020.3 0.00 0 0.0 0.000
8 01:00 38.8 38.0 44.2 38.8 97 NNW 2 G 8 30.11 1019.7 0.00 0 0.0 0.000
8 00:00 39.3 38.5 97 W 3 G 11 30.10 1019.3 0.00 0 0.0 0.008
7 23:00 40.0 39.0 96 WNW 2 G 10 30.09 1019.0 0.00 0 0.0 0.008
7 22:00 41.3 40.2 96 W 4 G 12 30.08 1018.7 0.00 0 0.0 0.008
7 21:00 42.8 41.7 96 W 0 G 1 30.06 1018.1 0.00 0 0.0 0.008
7 20:00 43.3 42.2 96 NNW 1 G 5 30.05 1017.5 0.00 0 0.0 0.008
7 19:00 44.2 43.1 51.1 44.2 96 W 1 G 4 30.02 1016.7 0.00 0 0.0 0.008
7 18:00 45.8 44.7 96 NNW 2 G 5 30.03 1017.0 0.00 0 0.0 0.008
7 17:00 47.7 46.6 96 NNW 0 G 5 30.00 1016.0 0.00 0 0.0 0.008
7 16:00 50.1 49.3 97 S 0 G 2 30.00 1015.8 0.00 0 0.0 0.008
7 15:00 50.3 49.2 96 Calm 29.99 1015.5 0.00 0 0.0 0.008
7 14:00 50.3 49.2 96 S 0 G 1 30.02 1016.5 0.00 5 0.0 0.008
7 13:00 51.1 49.7 51.3 47.1 95 S 3 G 6 30.03 1017.1 0.00 5 0.0 0.007
7 12:00 51.1 49.7 95 S 2 G 6 30.03 1016.8 0.00 58 0.0 0.006
7 11:00 50.8 48.9 93 S 4 G 13 30.06 1017.8 0.00 107 0.0 0.005
7 10:00 49.7 48.0 94 SSE 5 G 12 30.08 1018.6 0.00 33 0.0 0.004
7 09:00 48.4 47.0 95 S 3 G 11 30.07 1018.5 0.00 37 0.0 0.003
7 08:00 47.7 46.1 94 S 3 G 11 30.08 1018.5 0.00 19 0.0 0.003
7 07:00 47.2 45.6 49.9 46.5 94 ESE 1 G 10 30.08 1018.5 0.00 0 0.0 0.003
7 06:00 47.4 45.2 92 SSE 3 G 11 30.09 1018.9 0.00 0 0.0 0.003
7 05:00 46.9 45.0 93 SE 2 G 11 30.09 1019.1 0.00 0 0.0 0.003
7 04:00 46.9 44.4 91 ESE 2 G 11 30.11 1019.8 0.00 0 0.0 0.003
7 03:00 48.4 44.4 86 SE 6 G 18 30.13 1020.2 0.00 0 0.0 0.002
7 02:00 49.9 44.0 80 SSE 3 G 17 30.14 1020.8 0.00 0 0.0 0.001
7 01:00 49.2 43.9 49.6 46.9 82 SSE 7 G 19 30.15 1021.2 0.00 0 0.0 0.000
7 00:00 49.2 43.6 81 SSE 8 G 21 30.17 1021.7 0.00 0 0.0 0.028
6 23:00 49.0 43.7 82 SSE 3 G 12 30.18 1021.9 0.00 0 0.0 0.027
6 22:00 48.8 43.6 82 SE 7 G 16 30.19 1022.3 0.00 0 0.0 0.026
6 21:00 48.4 43.8 84 SSE 5 G 17 30.20 1022.8 0.00 0 0.0 0.025
6 20:00 47.5 43.5 86 SE 2 G 13 30.21 1023.1 0.00 0 0.0 0.024
6 19:00 46.9 43.2 47.0 43.1 87 SSE 4 G 12 30.22 1023.5 0.00 0 0.0 0.023
6 18:00 46.1 42.7 88 SSE 3 G 11 30.22 1023.4 0.00 0 0.0 0.023
6 17:00 44.9 42.1 90 SSE 2 G 12 30.22 1023.4 0.00 0 0.0 0.023
6 16:00 44.6 42.4 92 S 2 G 11 30.22 1023.5 0.00 0 0.0 0.023
6 15:00 44.3 42.1 92 SSE 3 G 10 30.22 1023.4 0.00 9 0.0 0.023
6 14:00 43.7 41.8 93 E 1 G 8 30.23 1023.7 0.00 16 0.0 0.022
6 13:00 43.1 41.2 44.3 37.6 93 SSE 1 G 6 30.23 1023.9 0.00 49 0.0 0.021
6 12:00 43.0 39.4 87 SE 2 G 5 30.25 1024.6 0.00 26 0.0 0.020
6 11:00 44.2 35.0 70 Calm 30.27 1025.0 0.00 26 0.0 0.019
6 10:00 43.4 33.6 68 S 1 G 4 30.28 1025.5 0.00 44 0.0 0.018
6 09:00 41.1 31.0 67 S 2 G 7 30.28 1025.5 0.00 35 0.0 0.017
6 08:00 38.5 28.9 68 S 3 G 10 30.27 1025.2 0.00 26 0.0 0.016
6 07:00 38.3 26.0 39.7 37.7 61 S 5 G 11 30.25 1024.3 0.00 0 0.0 0.015
6 06:00 39.2 23.0 52 SSE 3 G 13 30.24 1024.0 0.00 0 0.0 0.013
6 05:00 38.7 21.2 49 SSE 4 G 14 30.22 1023.5 0.00 0 0.0 0.011
6 04:00 37.8 18.9 46 S 3 G 12 30.23 1023.6 0.00 0 0.0 0.009
6 03:00 39.2 16.9 40 S 4 G 15 30.22 1023.5 0.00 0 0.0 0.006
6 02:00 39.4 16.5 39 S 6 G 20 30.22 1023.5 0.00 0 0.0 0.003
6 01:00 38.9 17.2 39.6 38.1 41 SSE 6 G 17 30.22 1023.4 0.00 0 0.0 0.000
6 00:00 39.6 17.8 41 SSE 11 G 25 30.19 1022.6 0.00 0 0.0 0.067
5 23:00 39.3 17.0 40 S 9 G 27 30.19 1022.3 0.00 0 0.0 0.064
5 22:00 39.0 18.4 43 S 8 G 20 30.18 1022.2 0.00 0 0.0 0.061
5 21:00 38.8 19.3 45 S 6 G 15 30.18 1022.0 0.00 0 0.0 0.058
5 20:00 38.2 19.7 47 S 7 G 16 30.17 1021.8 0.00 0 0.0 0.055
5 19:00 38.5 20.5 40.7 37.9 48 S 8 G 21 30.17 1021.6 0.00 0 0.0 0.052
5 18:00 38.0 20.5 49 SSE 9 G 19 30.15 1021.0 0.00 0 0.0 0.049
5 17:00 38.8 17.7 42 S 9 G 22 30.13 1020.5 0.00 0 0.0 0.046
5 16:00 38.3 16.7 41 S 9 G 19 30.11 1019.8 0.00 5 0.0 0.043
5 15:00 38.8 18.7 44 S 8 G 19 30.10 1019.2 0.00 47 0.0 0.039
5 14:00 40.5 19.2 42 S 9 G 18 30.06 1018.1 0.00 183 0.0 0.033
5 13:00 39.5 19.9 40.1 28.7 45 S 9 G 22 30.05 1017.7 0.00 343 0.0 0.026
5 12:00 39.0 21.5 49 S 10 G 23 30.06 1018.1 0.00 388 0.0 0.018
5 11:00 36.1 21.5 55 SSE 12 G 26 30.09 1019.0 0.00 225 0.0 0.013
5 10:00 34.1 21.3 59 S 10 G 27 30.09 1019.1 0.00 255 0.0 0.009
5 09:00 31.2 21.5 67 SSE 6 G 24 30.09 1019.1 0.00 28 0.0 0.008
5 08:00 29.5 21.3 71 S 6 G 18 30.09 1019.2 0.00 16 0.0 0.007
5 07:00 28.8 20.9 29.6 28.6 72 S 4 G 15 30.07 1018.3 0.00 0 0.0 0.006
5 06:00 28.8 21.2 73 S 6 G 15 30.07 1018.4 0.00 0 0.0 0.005

Data generated by WxSolution Version 1.9.1.9, Build 2022.03.27.


 
 
Current Radar Loop:

Copyright © WestfordWeather.net 2007-2022. All rights reserved.